sensor_id;sensor_type;location;lat;lon;timestamp;temperature;humidity
54898;DHT22;40800;52.704;6.398;2023-02-28T00:00:33;3.40;99.90
54898;DHT22;40800;52.704;6.398;2023-02-28T00:03:00;3.40;99.90
54898;DHT22;40800;52.704;6.398;2023-02-28T00:05:26;3.50;99.90
54898;DHT22;40800;52.704;6.398;2023-02-28T00:07:52;3.40;99.90
54898;DHT22;40800;52.704;6.398;2023-02-28T00:10:20;3.50;99.90
54898;DHT22;40800;52.704;6.398;2023-02-28T00:13:01;3.40;99.90
54898;DHT22;40800;52.704;6.398;2023-02-28T00:15:26;3.50;99.90
54898;DHT22;40800;52.704;6.398;2023-02-28T00:17:52;3.50;99.90
54898;DHT22;40800;52.704;6.398;2023-02-28T00:20:19;3.50;99.90
54898;DHT22;40800;52.704;6.398;2023-02-28T00:22:47;3.50;99.90
54898;DHT22;40800;52.704;6.398;2023-02-28T00:25:15;3.50;99.90
54898;DHT22;40800;52.704;6.398;2023-02-28T00:27:41;3.50;99.90
54898;DHT22;40800;52.704;6.398;2023-02-28T00:30:10;3.50;99.90
54898;DHT22;40800;52.704;6.398;2023-02-28T00:32:36;3.60;99.90
54898;DHT22;40800;52.704;6.398;2023-02-28T00:35:03;3.60;99.90
54898;DHT22;40800;52.704;6.398;2023-02-28T00:37:28;3.60;99.90
54898;DHT22;40800;52.704;6.398;2023-02-28T00:39:54;3.60;99.90
54898;DHT22;40800;52.704;6.398;2023-02-28T00:42:20;3.60;99.90
54898;DHT22;40800;52.704;6.398;2023-02-28T00:44:45;3.60;99.90
54898;DHT22;40800;52.704;6.398;2023-02-28T00:47:11;3.70;99.90
54898;DHT22;40800;52.704;6.398;2023-02-28T00:49:36;3.60;99.90
54898;DHT22;40800;52.704;6.398;2023-02-28T00:52:02;3.70;99.90
54898;DHT22;40800;52.704;6.398;2023-02-28T00:54:28;3.70;99.90
54898;DHT22;40800;52.704;6.398;2023-02-28T00:56:54;3.70;99.90
54898;DHT22;40800;52.704;6.398;2023-02-28T00:59:19;3.70;99.90
54898;DHT22;40800;52.704;6.398;2023-02-28T01:01:46;3.70;99.90
54898;DHT22;40800;52.704;6.398;2023-02-28T01:04:12;3.70;99.90
54898;DHT22;40800;52.704;6.398;2023-02-28T01:06:38;3.70;99.90
54898;DHT22;40800;52.704;6.398;2023-02-28T01:09:05;3.80;99.90
54898;DHT22;40800;52.704;6.398;2023-02-28T01:11:31;3.90;99.90
54898;DHT22;40800;52.704;6.398;2023-02-28T01:13:58;4.00;99.90
54898;DHT22;40800;52.704;6.398;2023-02-28T01:16:23;4.00;99.90
54898;DHT22;40800;52.704;6.398;2023-02-28T01:18:49;4.00;99.90
54898;DHT22;40800;52.704;6.398;2023-02-28T01:21:17;4.00;99.90
54898;DHT22;40800;52.704;6.398;2023-02-28T01:23:43;3.90;99.90
54898;DHT22;40800;52.704;6.398;2023-02-28T01:26:12;3.90;99.90
54898;DHT22;40800;52.704;6.398;2023-02-28T01:28:38;3.90;99.90
54898;DHT22;40800;52.704;6.398;2023-02-28T01:31:04;3.90;99.90
54898;DHT22;40800;52.704;6.398;2023-02-28T01:33:31;3.80;99.90
54898;DHT22;40800;52.704;6.398;2023-02-28T01:36:04;3.80;99.90
54898;DHT22;40800;52.704;6.398;2023-02-28T01:38:31;3.80;99.90
54898;DHT22;40800;52.704;6.398;2023-02-28T01:40:56;3.80;99.90
54898;DHT22;40800;52.704;6.398;2023-02-28T01:43:31;3.90;99.90
54898;DHT22;40800;52.704;6.398;2023-02-28T01:45:58;3.90;99.90
54898;DHT22;40800;52.704;6.398;2023-02-28T01:48:34;3.90;99.90
54898;DHT22;40800;52.704;6.398;2023-02-28T01:51:11;3.90;99.90
54898;DHT22;40800;52.704;6.398;2023-02-28T01:53:53;3.90;99.90
54898;DHT22;40800;52.704;6.398;2023-02-28T01:56:24;4.00;99.90
54898;DHT22;40800;52.704;6.398;2023-02-28T01:58:51;4.00;99.90
54898;DHT22;40800;52.704;6.398;2023-02-28T02:01:17;4.00;99.90
54898;DHT22;40800;52.704;6.398;2023-02-28T02:03:58;4.10;99.90
54898;DHT22;40800;52.704;6.398;2023-02-28T02:06:27;4.10;99.90
54898;DHT22;40800;52.704;6.398;2023-02-28T02:08:54;4.20;99.90
54898;DHT22;40800;52.704;6.398;2023-02-28T02:11:22;4.20;99.90
54898;DHT22;40800;52.704;6.398;2023-02-28T02:17:04;4.10;99.90
54898;DHT22;40800;52.704;6.398;2023-02-28T02:31:03;3.90;99.90
54898;DHT22;40800;52.704;6.398;2023-02-28T02:36:07;3.90;99.90
54898;DHT22;40800;52.704;6.398;2023-02-28T02:38:49;3.90;99.90
54898;DHT22;40800;52.704;6.398;2023-02-28T02:44:06;3.90;99.90
54898;DHT22;40800;52.704;6.398;2023-02-28T02:46:37;4.00;99.90
54898;DHT22;40800;52.704;6.398;2023-02-28T02:49:09;4.00;99.90
54898;DHT22;40800;52.704;6.398;2023-02-28T02:51:36;4.20;99.90
54898;DHT22;40800;52.704;6.398;2023-02-28T02:56:43;4.20;99.90
54898;DHT22;40800;52.704;6.398;2023-02-28T02:59:13;4.20;99.90
54898;DHT22;40800;52.704;6.398;2023-02-28T03:01:51;4.20;99.90
54898;DHT22;40800;52.704;6.398;2023-02-28T03:04:20;4.10;99.90
54898;DHT22;40800;52.704;6.398;2023-02-28T03:06:47;4.00;99.90
54898;DHT22;40800;52.704;6.398;2023-02-28T03:09:13;4.00;99.90
54898;DHT22;40800;52.704;6.398;2023-02-28T03:11:39;3.90;99.90
54898;DHT22;40800;52.704;6.398;2023-02-28T03:25:52;3.70;99.90
54898;DHT22;40800;52.704;6.398;2023-02-28T03:31:20;3.50;99.90
54898;DHT22;40800;52.704;6.398;2023-02-28T03:33:54;3.50;99.90
54898;DHT22;40800;52.704;6.398;2023-02-28T03:36:29;3.50;99.90
54898;DHT22;40800;52.704;6.398;2023-02-28T03:39:03;3.40;99.90
54898;DHT22;40800;52.704;6.398;2023-02-28T03:41:51;3.40;99.90
54898;DHT22;40800;52.704;6.398;2023-02-28T03:47:06;3.20;99.90
54898;DHT22;40800;52.704;6.398;2023-02-28T03:49:36;3.20;99.90
54898;DHT22;40800;52.704;6.398;2023-02-28T03:52:08;3.10;99.90
54898;DHT22;40800;52.704;6.398;2023-02-28T03:54:41;3.00;99.90
54898;DHT22;40800;52.704;6.398;2023-02-28T03:57:28;3.00;99.90
54898;DHT22;40800;52.704;6.398;2023-02-28T04:00:17;3.00;99.90
54898;DHT22;40800;52.704;6.398;2023-02-28T04:02:44;3.10;99.90
54898;DHT22;40800;52.704;6.398;2023-02-28T04:05:10;3.10;99.90
54898;DHT22;40800;52.704;6.398;2023-02-28T04:07:36;3.20;99.90
54898;DHT22;40800;52.704;6.398;2023-02-28T04:10:03;3.20;99.90
54898;DHT22;40800;52.704;6.398;2023-02-28T04:12:29;3.30;99.90
54898;DHT22;40800;52.704;6.398;2023-02-28T04:14:55;3.40;99.90
54898;DHT22;40800;52.704;6.398;2023-02-28T04:17:20;3.40;99.90
54898;DHT22;40800;52.704;6.398;2023-02-28T04:19:46;3.50;99.90
54898;DHT22;40800;52.704;6.398;2023-02-28T04:22:11;3.50;99.90
54898;DHT22;40800;52.704;6.398;2023-02-28T04:24:37;3.50;99.90
54898;DHT22;40800;52.704;6.398;2023-02-28T04:27:08;3.40;99.90
54898;DHT22;40800;52.704;6.398;2023-02-28T04:29:34;3.40;99.90
54898;DHT22;40800;52.704;6.398;2023-02-28T04:32:00;3.30;99.90
54898;DHT22;40800;52.704;6.398;2023-02-28T04:34:28;3.30;99.90
54898;DHT22;40800;52.704;6.398;2023-02-28T04:36:55;3.30;99.90
54898;DHT22;40800;52.704;6.398;2023-02-28T04:39:21;3.30;99.90
54898;DHT22;40800;52.704;6.398;2023-02-28T04:41:48;3.30;99.90
54898;DHT22;40800;52.704;6.398;2023-02-28T04:44:14;3.40;99.90
54898;DHT22;40800;52.704;6.398;2023-02-28T04:46:40;3.30;99.90
54898;DHT22;40800;52.704;6.398;2023-02-28T04:49:06;3.20;99.90
54898;DHT22;40800;52.704;6.398;2023-02-28T04:51:32;3.10;99.90
54898;DHT22;40800;52.704;6.398;2023-02-28T04:53:57;3.00;99.90
54898;DHT22;40800;52.704;6.398;2023-02-28T04:56:23;3.00;99.90
54898;DHT22;40800;52.704;6.398;2023-02-28T04:58:49;3.10;99.90
54898;DHT22;40800;52.704;6.398;2023-02-28T05:03:48;3.10;99.90
54898;DHT22;40800;52.704;6.398;2023-02-28T05:06:14;3.20;99.90
54898;DHT22;40800;52.704;6.398;2023-02-28T05:08:40;3.20;99.90
54898;DHT22;40800;52.704;6.398;2023-02-28T05:13:45;3.30;99.90
54898;DHT22;40800;52.704;6.398;2023-02-28T05:16:10;3.10;99.90
54898;DHT22;40800;52.704;6.398;2023-02-28T05:18:37;3.00;99.90
54898;DHT22;40800;52.704;6.398;2023-02-28T05:21:02;3.10;99.90
54898;DHT22;40800;52.704;6.398;2023-02-28T05:23:28;3.10;99.90
54898;DHT22;40800;52.704;6.398;2023-02-28T05:25:55;3.10;99.90
54898;DHT22;40800;52.704;6.398;2023-02-28T05:28:20;3.10;99.90
54898;DHT22;40800;52.704;6.398;2023-02-28T05:30:46;3.00;99.90
54898;DHT22;40800;52.704;6.398;2023-02-28T05:33:12;3.00;99.90
54898;DHT22;40800;52.704;6.398;2023-02-28T05:35:39;3.00;99.90
54898;DHT22;40800;52.704;6.398;2023-02-28T05:38:05;2.90;99.90
54898;DHT22;40800;52.704;6.398;2023-02-28T05:40:30;2.80;99.90
54898;DHT22;40800;52.704;6.398;2023-02-28T05:42:56;2.90;99.90
54898;DHT22;40800;52.704;6.398;2023-02-28T05:45:22;2.80;99.90
54898;DHT22;40800;52.704;6.398;2023-02-28T05:47:47;2.90;99.90
54898;DHT22;40800;52.704;6.398;2023-02-28T05:50:13;2.80;99.90
54898;DHT22;40800;52.704;6.398;2023-02-28T05:52:38;2.70;99.90
54898;DHT22;40800;52.704;6.398;2023-02-28T05:55:04;2.70;99.90
54898;DHT22;40800;52.704;6.398;2023-02-28T05:57:30;2.80;99.90
54898;DHT22;40800;52.704;6.398;2023-02-28T05:59:56;2.80;99.90
54898;DHT22;40800;52.704;6.398;2023-02-28T06:02:21;2.80;99.90
54898;DHT22;40800;52.704;6.398;2023-02-28T06:04:47;2.60;99.90
54898;DHT22;40800;52.704;6.398;2023-02-28T06:07:12;2.60;99.90
54898;DHT22;40800;52.704;6.398;2023-02-28T06:09:38;2.50;99.90
54898;DHT22;40800;52.704;6.398;2023-02-28T06:12:06;2.50;99.90
54898;DHT22;40800;52.704;6.398;2023-02-28T06:14:33;2.50;99.90
54898;DHT22;40800;52.704;6.398;2023-02-28T06:17:00;2.50;99.90
54898;DHT22;40800;52.704;6.398;2023-02-28T06:19:26;2.50;99.90
54898;DHT22;40800;52.704;6.398;2023-02-28T06:21:53;2.40;99.90
54898;DHT22;40800;52.704;6.398;2023-02-28T06:24:19;2.50;99.90
54898;DHT22;40800;52.704;6.398;2023-02-28T06:26:45;2.40;99.90
54898;DHT22;40800;52.704;6.398;2023-02-28T06:29:10;2.40;99.90
54898;DHT22;40800;52.704;6.398;2023-02-28T06:31:36;2.30;99.90
54898;DHT22;40800;52.704;6.398;2023-02-28T06:34:04;2.30;99.90
54898;DHT22;40800;52.704;6.398;2023-02-28T06:36:29;2.40;99.90
54898;DHT22;40800;52.704;6.398;2023-02-28T06:38:55;2.30;99.90
54898;DHT22;40800;52.704;6.398;2023-02-28T06:41:25;2.30;99.90
54898;DHT22;40800;52.704;6.398;2023-02-28T06:43:52;2.10;99.90
54898;DHT22;40800;52.704;6.398;2023-02-28T06:46:18;2.00;99.90
54898;DHT22;40800;52.704;6.398;2023-02-28T06:48:44;2.20;99.90
54898;DHT22;40800;52.704;6.398;2023-02-28T06:51:18;2.30;99.90
54898;DHT22;40800;52.704;6.398;2023-02-28T06:53:50;2.20;99.90
54898;DHT22;40800;52.704;6.398;2023-02-28T06:56:16;2.30;99.90
54898;DHT22;40800;52.704;6.398;2023-02-28T06:58:49;2.10;99.90
54898;DHT22;40800;52.704;6.398;2023-02-28T07:01:16;2.30;99.90
54898;DHT22;40800;52.704;6.398;2023-02-28T07:03:41;2.10;99.90
54898;DHT22;40800;52.704;6.398;2023-02-28T07:06:07;2.30;99.90
54898;DHT22;40800;52.704;6.398;2023-02-28T07:08:34;2.30;99.90
54898;DHT22;40800;52.704;6.398;2023-02-28T07:11:01;2.50;99.90
54898;DHT22;40800;52.704;6.398;2023-02-28T07:13:27;2.60;99.90
54898;DHT22;40800;52.704;6.398;2023-02-28T07:16:04;2.50;99.90
54898;DHT22;40800;52.704;6.398;2023-02-28T07:18:30;2.60;99.90
54898;DHT22;40800;52.704;6.398;2023-02-28T07:20:56;2.60;99.90
54898;DHT22;40800;52.704;6.398;2023-02-28T07:23:22;2.70;99.90
54898;DHT22;40800;52.704;6.398;2023-02-28T07:25:49;2.70;99.90
54898;DHT22;40800;52.704;6.398;2023-02-28T07:28:15;2.70;99.90
54898;DHT22;40800;52.704;6.398;2023-02-28T07:30:41;2.80;99.90
54898;DHT22;40800;52.704;6.398;2023-02-28T07:33:06;2.80;99.90
54898;DHT22;40800;52.704;6.398;2023-02-28T07:35:32;2.90;99.90
54898;DHT22;40800;52.704;6.398;2023-02-28T07:37:58;2.90;99.90
54898;DHT22;40800;52.704;6.398;2023-02-28T07:40:24;3.00;99.90
54898;DHT22;40800;52.704;6.398;2023-02-28T07:42:50;2.90;99.90
54898;DHT22;40800;52.704;6.398;2023-02-28T07:45:16;3.10;99.90
54898;DHT22;40800;52.704;6.398;2023-02-28T07:47:43;3.00;99.90
54898;DHT22;40800;52.704;6.398;2023-02-28T07:50:11;3.00;99.90
54898;DHT22;40800;52.704;6.398;2023-02-28T07:52:37;3.10;99.90
54898;DHT22;40800;52.704;6.398;2023-02-28T07:55:05;3.30;99.90
54898;DHT22;40800;52.704;6.398;2023-02-28T07:57:31;3.20;99.90
54898;DHT22;40800;52.704;6.398;2023-02-28T07:59:57;3.20;99.90
54898;DHT22;40800;52.704;6.398;2023-02-28T08:02:23;3.20;99.90
54898;DHT22;40800;52.704;6.398;2023-02-28T08:04:48;3.40;99.90
54898;DHT22;40800;52.704;6.398;2023-02-28T08:07:15;3.50;99.90
54898;DHT22;40800;52.704;6.398;2023-02-28T08:09:41;3.60;99.90
54898;DHT22;40800;52.704;6.398;2023-02-28T08:12:08;3.60;99.90
54898;DHT22;40800;52.704;6.398;2023-02-28T08:14:34;3.80;99.90
54898;DHT22;40800;52.704;6.398;2023-02-28T08:17:00;3.80;99.90
54898;DHT22;40800;52.704;6.398;2023-02-28T08:19:26;3.90;99.90
54898;DHT22;40800;52.704;6.398;2023-02-28T08:21:51;3.80;99.90
54898;DHT22;40800;52.704;6.398;2023-02-28T08:24:17;3.90;99.90
54898;DHT22;40800;52.704;6.398;2023-02-28T08:26:43;3.90;99.90
54898;DHT22;40800;52.704;6.398;2023-02-28T08:29:09;4.10;99.90
54898;DHT22;40800;52.704;6.398;2023-02-28T08:31:35;4.10;99.90
54898;DHT22;40800;52.704;6.398;2023-02-28T08:34:05;4.40;99.90
54898;DHT22;40800;52.704;6.398;2023-02-28T08:36:31;4.40;99.90
54898;DHT22;40800;52.704;6.398;2023-02-28T08:38:57;4.50;99.90
54898;DHT22;40800;52.704;6.398;2023-02-28T08:41:23;4.60;99.90
54898;DHT22;40800;52.704;6.398;2023-02-28T08:43:48;4.80;99.90
54898;DHT22;40800;52.704;6.398;2023-02-28T08:46:15;5.00;99.90
54898;DHT22;40800;52.704;6.398;2023-02-28T08:48:41;5.10;99.90
54898;DHT22;40800;52.704;6.398;2023-02-28T08:51:10;5.20;99.90
54898;DHT22;40800;52.704;6.398;2023-02-28T08:53:37;5.30;99.90
54898;DHT22;40800;52.704;6.398;2023-02-28T08:56:06;5.40;99.90
54898;DHT22;40800;52.704;6.398;2023-02-28T08:58:32;5.40;99.90
54898;DHT22;40800;52.704;6.398;2023-02-28T09:00:57;5.40;99.90
54898;DHT22;40800;52.704;6.398;2023-02-28T09:03:23;5.60;99.90
54898;DHT22;40800;52.704;6.398;2023-02-28T09:05:58;5.70;99.90
54898;DHT22;40800;52.704;6.398;2023-02-28T09:08:25;5.70;99.90
54898;DHT22;40800;52.704;6.398;2023-02-28T09:10:51;5.80;99.90
54898;DHT22;40800;52.704;6.398;2023-02-28T09:13:18;6.10;99.90
54898;DHT22;40800;52.704;6.398;2023-02-28T09:15:44;6.20;99.90
54898;DHT22;40800;52.704;6.398;2023-02-28T09:18:10;6.60;99.90
54898;DHT22;40800;52.704;6.398;2023-02-28T09:20:40;6.80;99.90
54898;DHT22;40800;52.704;6.398;2023-02-28T09:23:07;6.80;99.90
54898;DHT22;40800;52.704;6.398;2023-02-28T09:25:34;6.90;99.90
54898;DHT22;40800;52.704;6.398;2023-02-28T09:28:00;6.90;99.90
54898;DHT22;40800;52.704;6.398;2023-02-28T09:30:26;6.80;99.90
54898;DHT22;40800;52.704;6.398;2023-02-28T09:32:51;6.80;99.90
54898;DHT22;40800;52.704;6.398;2023-02-28T09:35:22;6.80;99.90
54898;DHT22;40800;52.704;6.398;2023-02-28T09:37:49;6.70;99.90
54898;DHT22;40800;52.704;6.398;2023-02-28T09:40:17;6.80;99.90
54898;DHT22;40800;52.704;6.398;2023-02-28T09:42:47;6.80;99.90
54898;DHT22;40800;52.704;6.398;2023-02-28T09:45:24;6.90;99.90
54898;DHT22;40800;52.704;6.398;2023-02-28T09:47:54;7.10;99.90
54898;DHT22;40800;52.704;6.398;2023-02-28T09:50:43;7.30;99.90
54898;DHT22;40800;52.704;6.398;2023-02-28T09:53:19;7.50;99.90
54898;DHT22;40800;52.704;6.398;2023-02-28T09:55:51;7.30;99.90
54898;DHT22;40800;52.704;6.398;2023-02-28T09:58:45;7.50;99.90
54898;DHT22;40800;52.704;6.398;2023-02-28T10:01:30;7.40;99.90
54898;DHT22;40800;52.704;6.398;2023-02-28T10:04:00;7.80;99.90
54898;DHT22;40800;52.704;6.398;2023-02-28T10:06:32;8.00;99.90
54898;DHT22;40800;52.704;6.398;2023-02-28T10:09:06;8.20;99.90
54898;DHT22;40800;52.704;6.398;2023-02-28T10:11:36;8.30;99.90
54898;DHT22;40800;52.704;6.398;2023-02-28T10:16:43;8.40;99.90
54898;DHT22;40800;52.704;6.398;2023-02-28T10:19:26;8.50;99.90
54898;DHT22;40800;52.704;6.398;2023-02-28T10:22:24;8.40;99.90
54898;DHT22;40800;52.704;6.398;2023-02-28T10:24:53;8.40;99.90
54898;DHT22;40800;52.704;6.398;2023-02-28T10:27:24;8.30;99.90
54898;DHT22;40800;52.704;6.398;2023-02-28T10:29:51;8.10;99.90
54898;DHT22;40800;52.704;6.398;2023-02-28T10:32:19;8.00;99.90
54898;DHT22;40800;52.704;6.398;2023-02-28T10:37:34;8.50;99.90
54898;DHT22;40800;52.704;6.398;2023-02-28T10:40:05;8.60;99.90
54898;DHT22;40800;52.704;6.398;2023-02-28T10:42:32;8.70;99.90
54898;DHT22;40800;52.704;6.398;2023-02-28T10:45:17;8.90;99.90
54898;DHT22;40800;52.704;6.398;2023-02-28T10:50:50;9.00;99.90
54898;DHT22;40800;52.704;6.398;2023-02-28T10:55:42;9.60;99.90
54898;DHT22;40800;52.704;6.398;2023-02-28T11:01:00;10.30;99.90
54898;DHT22;40800;52.704;6.398;2023-02-28T11:03:34;10.40;99.90
54898;DHT22;40800;52.704;6.398;2023-02-28T11:06:06;10.50;99.90
54898;DHT22;40800;52.704;6.398;2023-02-28T11:08:33;10.30;99.90
54898;DHT22;40800;52.704;6.398;2023-02-28T11:11:04;10.10;99.90
54898;DHT22;40800;52.704;6.398;2023-02-28T11:13:36;10.40;99.90
54898;DHT22;40800;52.704;6.398;2023-02-28T11:16:07;10.40;99.90
54898;DHT22;40800;52.704;6.398;2023-02-28T11:21:15;10.70;99.90
54898;DHT22;40800;52.704;6.398;2023-02-28T11:23:42;11.00;99.90
54898;DHT22;40800;52.704;6.398;2023-02-28T11:26:09;10.80;99.90
54898;DHT22;40800;52.704;6.398;2023-02-28T11:28:40;10.80;99.90
54898;DHT22;40800;52.704;6.398;2023-02-28T11:38:41;10.90;99.90
54898;DHT22;40800;52.704;6.398;2023-02-28T11:41:19;10.70;99.90
54898;DHT22;40800;52.704;6.398;2023-02-28T11:49:35;10.30;99.90
54898;DHT22;40800;52.704;6.398;2023-02-28T11:52:21;10.30;99.90
54898;DHT22;40800;52.704;6.398;2023-02-28T11:55:19;10.30;99.90
54898;DHT22;40800;52.704;6.398;2023-02-28T12:19:51;10.70;99.90
54898;DHT22;40800;52.704;6.398;2023-02-28T12:25:19;11.10;99.90
54898;DHT22;40800;52.704;6.398;2023-02-28T12:27:47;11.40;99.90
54898;DHT22;40800;52.704;6.398;2023-02-28T12:30:30;11.40;99.90
54898;DHT22;40800;52.704;6.398;2023-02-28T12:33:16;11.10;99.90
54898;DHT22;40800;52.704;6.398;2023-02-28T12:35:58;10.90;99.90
54898;DHT22;40800;52.704;6.398;2023-02-28T12:38:29;10.90;99.90
54898;DHT22;40800;52.704;6.398;2023-02-28T12:41:00;10.80;99.90
54898;DHT22;40800;52.704;6.398;2023-02-28T12:43:32;10.80;99.90
54898;DHT22;40800;52.704;6.398;2023-02-28T12:46:03;10.90;99.90
54898;DHT22;40800;52.704;6.398;2023-02-28T12:48:51;10.90;99.90
54898;DHT22;40800;52.704;6.398;2023-02-28T12:51:18;10.90;99.90
54898;DHT22;40800;52.704;6.398;2023-02-28T12:56:33;11.20;99.90
54898;DHT22;40800;52.704;6.398;2023-02-28T13:04:32;11.20;99.90
54898;DHT22;40800;52.704;6.398;2023-02-28T13:10:00;10.90;99.90
54898;DHT22;40800;52.704;6.398;2023-02-28T13:12:27;10.80;99.90
54898;DHT22;40800;52.704;6.398;2023-02-28T13:15:17;10.80;99.90
54898;DHT22;40800;52.704;6.398;2023-02-28T13:17:50;10.70;99.90
54898;DHT22;40800;52.704;6.398;2023-02-28T13:20:46;10.90;99.90
54898;DHT22;40800;52.704;6.398;2023-02-28T13:23:03;10.70;99.90
54898;DHT22;40800;52.704;6.398;2023-02-28T13:25:51;10.90;99.90
54898;DHT22;40800;52.704;6.398;2023-02-28T13:31:15;11.30;99.90
54898;DHT22;40800;52.704;6.398;2023-02-28T13:38:47;11.50;99.90
54898;DHT22;40800;52.704;6.398;2023-02-28T13:44:05;11.30;99.90
54898;DHT22;40800;52.704;6.398;2023-02-28T13:46:36;11.60;99.90
54898;DHT22;40800;52.704;6.398;2023-02-28T13:55:09;12.60;99.90
54898;DHT22;40800;52.704;6.398;2023-02-28T14:08:57;14.50;99.90
54898;DHT22;40800;52.704;6.398;2023-02-28T14:11:27;14.10;99.90
54898;DHT22;40800;52.704;6.398;2023-02-28T14:13:54;13.50;99.90
54898;DHT22;40800;52.704;6.398;2023-02-28T14:16:25;13.40;99.90
54898;DHT22;40800;52.704;6.398;2023-02-28T14:19:00;13.50;99.90
54898;DHT22;40800;52.704;6.398;2023-02-28T14:21:32;13.60;99.90
54898;DHT22;40800;52.704;6.398;2023-02-28T14:32:31;15.10;99.90
54898;DHT22;40800;52.704;6.398;2023-02-28T14:35:39;14.80;99.90
54898;DHT22;40800;52.704;6.398;2023-02-28T14:38:20;14.30;99.90
54898;DHT22;40800;52.704;6.398;2023-02-28T14:40:49;13.80;99.90
54898;DHT22;40800;52.704;6.398;2023-02-28T14:43:27;13.40;99.90
54898;DHT22;40800;52.704;6.398;2023-02-28T14:46:01;13.10;99.90
54898;DHT22;40800;52.704;6.398;2023-02-28T14:48:27;13.00;99.90
54898;DHT22;40800;52.704;6.398;2023-02-28T14:50:58;12.70;99.90
54898;DHT22;40800;52.704;6.398;2023-02-28T14:53:29;12.50;99.90
54898;DHT22;40800;52.704;6.398;2023-02-28T14:55:56;13.40;99.90
54898;DHT22;40800;52.704;6.398;2023-02-28T14:58:30;13.50;99.90
54898;DHT22;40800;52.704;6.398;2023-02-28T15:00:58;13.70;99.90
54898;DHT22;40800;52.704;6.398;2023-02-28T15:03:33;13.60;99.90
54898;DHT22;40800;52.704;6.398;2023-02-28T15:06:12;13.30;99.90
54898;DHT22;40800;52.704;6.398;2023-02-28T15:08:38;13.20;99.90
54898;DHT22;40800;52.704;6.398;2023-02-28T15:11:08;13.10;99.90
54898;DHT22;40800;52.704;6.398;2023-02-28T15:13:39;13.00;99.90
54898;DHT22;40800;52.704;6.398;2023-02-28T15:16:10;12.90;99.90
54898;DHT22;40800;52.704;6.398;2023-02-28T15:19:37;13.10;99.90
54898;DHT22;40800;52.704;6.398;2023-02-28T15:21:48;14.80;99.90
54898;DHT22;40800;52.704;6.398;2023-02-28T15:26:58;15.70;99.90
54898;DHT22;40800;52.704;6.398;2023-02-28T15:29:27;15.60;99.90
54898;DHT22;40800;52.704;6.398;2023-02-28T15:34:38;16.90;99.90
54898;DHT22;40800;52.704;6.398;2023-02-28T15:39:57;16.90;99.90
54898;DHT22;40800;52.704;6.398;2023-02-28T15:42:28;16.30;99.90
54898;DHT22;40800;52.704;6.398;2023-02-28T15:44:54;15.50;99.90
54898;DHT22;40800;52.704;6.398;2023-02-28T15:47:22;15.40;99.90
54898;DHT22;40800;52.704;6.398;2023-02-28T15:49:52;15.50;99.90
54898;DHT22;40800;52.704;6.398;2023-02-28T15:52:34;15.70;99.90
54898;DHT22;40800;52.704;6.398;2023-02-28T15:55:11;16.00;99.90
54898;DHT22;40800;52.704;6.398;2023-02-28T15:57:41;16.50;99.90
54898;DHT22;40800;52.704;6.398;2023-02-28T16:00:11;16.70;99.90
54898;DHT22;40800;52.704;6.398;2023-02-28T16:02:37;16.60;99.90
54898;DHT22;40800;52.704;6.398;2023-02-28T16:07:39;16.00;99.90
54898;DHT22;40800;52.704;6.398;2023-02-28T16:10:07;16.00;99.90
54898;DHT22;40800;52.704;6.398;2023-02-28T16:12:37;16.10;99.90
54898;DHT22;40800;52.704;6.398;2023-02-28T16:15:09;16.30;99.90
54898;DHT22;40800;52.704;6.398;2023-02-28T16:17:38;16.60;99.90
54898;DHT22;40800;52.704;6.398;2023-02-28T16:20:21;16.50;99.90
54898;DHT22;40800;52.704;6.398;2023-02-28T16:22:47;16.60;98.80
54898;DHT22;40800;52.704;6.398;2023-02-28T16:25:17;16.80;94.00
54898;DHT22;40800;52.704;6.398;2023-02-28T16:27:45;16.80;76.10
54898;DHT22;40800;52.704;6.398;2023-02-28T16:30:20;17.00;50.30
54898;DHT22;40800;52.704;6.398;2023-02-28T16:32:47;16.80;6.60
54898;DHT22;40800;52.704;6.398;2023-02-28T16:35:13;17.00;1.00
54898;DHT22;40800;52.704;6.398;2023-02-28T16:37:39;16.70;1.00
54898;DHT22;40800;52.704;6.398;2023-02-28T16:40:06;16.60;1.00
54898;DHT22;40800;52.704;6.398;2023-02-28T16:42:33;16.40;99.90
54898;DHT22;40800;52.704;6.398;2023-02-28T16:44:59;16.20;99.90
54898;DHT22;40800;52.704;6.398;2023-02-28T16:47:24;15.90;99.90
54898;DHT22;40800;52.704;6.398;2023-02-28T16:49:52;15.70;99.90
54898;DHT22;40800;52.704;6.398;2023-02-28T16:52:18;15.50;99.90
54898;DHT22;40800;52.704;6.398;2023-02-28T16:54:43;15.20;99.90
54898;DHT22;40800;52.704;6.398;2023-02-28T16:57:27;15.00;93.30
54898;DHT22;40800;52.704;6.398;2023-02-28T16:59:53;14.50;33.90
54898;DHT22;40800;52.704;6.398;2023-02-28T17:02:19;14.30;1.00
54898;DHT22;40800;52.704;6.398;2023-02-28T17:04:45;14.00;1.00
54898;DHT22;40800;52.704;6.398;2023-02-28T17:07:12;13.60;1.00
54898;DHT22;40800;52.704;6.398;2023-02-28T17:09:39;13.20;1.00
54898;DHT22;40800;52.704;6.398;2023-02-28T17:12:04;12.90;99.90
54898;DHT22;40800;52.704;6.398;2023-02-28T17:14:30;12.60;99.90
54898;DHT22;40800;52.704;6.398;2023-02-28T17:16:56;12.20;99.90
54898;DHT22;40800;52.704;6.398;2023-02-28T17:19:22;12.00;99.90
54898;DHT22;40800;52.704;6.398;2023-02-28T17:21:47;11.70;99.90
54898;DHT22;40800;52.704;6.398;2023-02-28T17:24:13;11.50;99.90
54898;DHT22;40800;52.704;6.398;2023-02-28T17:26:40;11.10;99.90
54898;DHT22;40800;52.704;6.398;2023-02-28T17:29:15;11.10;99.90
54898;DHT22;40800;52.704;6.398;2023-02-28T17:31:41;11.10;99.90
54898;DHT22;40800;52.704;6.398;2023-02-28T17:34:07;10.30;99.90
54898;DHT22;40800;52.704;6.398;2023-02-28T17:36:33;10.10;99.90
54898;DHT22;40800;52.704;6.398;2023-02-28T17:39:00;9.80;99.90
54898;DHT22;40800;52.704;6.398;2023-02-28T17:41:26;9.80;99.90
54898;DHT22;40800;52.704;6.398;2023-02-28T17:43:52;9.40;99.90
54898;DHT22;40800;52.704;6.398;2023-02-28T17:46:23;9.20;99.90
54898;DHT22;40800;52.704;6.398;2023-02-28T17:48:49;8.80;99.90
54898;DHT22;40800;52.704;6.398;2023-02-28T17:51:16;8.60;99.90
54898;DHT22;40800;52.704;6.398;2023-02-28T17:53:42;8.50;99.90
54898;DHT22;40800;52.704;6.398;2023-02-28T17:56:26;8.30;99.90
54898;DHT22;40800;52.704;6.398;2023-02-28T17:58:53;8.00;99.90
54898;DHT22;40800;52.704;6.398;2023-02-28T18:01:20;7.70;99.90
54898;DHT22;40800;52.704;6.398;2023-02-28T18:03:46;7.50;99.90
54898;DHT22;40800;52.704;6.398;2023-02-28T18:09:02;7.30;99.90
54898;DHT22;40800;52.704;6.398;2023-02-28T18:11:27;7.10;99.90
54898;DHT22;40800;52.704;6.398;2023-02-28T18:14:06;7.20;99.90
54898;DHT22;40800;52.704;6.398;2023-02-28T18:16:32;6.80;99.90
54898;DHT22;40800;52.704;6.398;2023-02-28T18:18:57;6.70;99.90
54898;DHT22;40800;52.704;6.398;2023-02-28T18:21:23;6.50;99.90
54898;DHT22;40800;52.704;6.398;2023-02-28T18:23:48;6.40;99.90
54898;DHT22;40800;52.704;6.398;2023-02-28T18:26:16;6.20;99.90
54898;DHT22;40800;52.704;6.398;2023-02-28T18:28:42;6.00;1.00
54898;DHT22;40800;52.704;6.398;2023-02-28T18:31:10;5.90;1.00
54898;DHT22;40800;52.704;6.398;2023-02-28T18:33:36;5.80;1.00
54898;DHT22;40800;52.704;6.398;2023-02-28T18:36:02;5.70;1.00